createdAt,value
2023-06-22T00:00:58.245Z,62.31
2023-06-22T00:05:09.951Z,62.56
2023-06-22T00:09:21.642Z,62.46
2023-06-22T00:13:33.393Z,62.36
2023-06-22T00:17:45.200Z,62.31
2023-06-22T00:22:03.646Z,62.65
2023-06-22T00:26:15.516Z,62.38
2023-06-22T00:30:27.529Z,62.93
2023-06-22T00:34:42.824Z,63.63
2023-06-22T00:38:54.547Z,63.44
2023-06-22T00:43:06.926Z,64.18
2023-06-22T00:47:19.244Z,64.36
2023-06-22T00:51:31.130Z,64.59
2023-06-22T00:55:45.018Z,64.88
2023-06-22T00:59:57.349Z,64.90
2023-06-22T01:04:09.627Z,65.24
2023-06-22T01:08:39.440Z,65.24
2023-06-22T01:12:54.784Z,65.87
2023-06-22T01:17:09.044Z,65.89
2023-06-22T01:21:22.150Z,66.26
2023-06-22T01:26:09.757Z,66.27
2023-06-22T01:30:21.745Z,66.53
2023-06-22T01:34:34.557Z,66.77
2023-06-22T01:38:50.973Z,66.60
2023-06-22T01:43:04.984Z,66.91
2023-06-22T01:47:16.928Z,67.09
2023-06-22T01:51:29.037Z,67.21
2023-06-22T01:55:40.820Z,67.17
2023-06-22T02:00:05.850Z,67.08
2023-06-22T02:04:32.617Z,67.15
2023-06-22T02:08:58.279Z,66.76
2023-06-22T02:13:11.307Z,66.61
2023-06-22T02:17:24.546Z,66.52
2023-06-22T02:21:36.369Z,66.80
2023-06-22T02:25:48.135Z,66.68
2023-06-22T02:29:59.919Z,67.11
2023-06-22T02:34:11.678Z,67.08
2023-06-22T02:38:25.592Z,67.88
2023-06-22T02:42:38.664Z,67.45
2023-06-22T02:46:50.699Z,67.58
2023-06-22T02:51:03.099Z,67.99
2023-06-22T02:55:14.968Z,68.34
2023-06-22T02:59:30.782Z,68.17
2023-06-22T03:03:50.450Z,68.47
2023-06-22T03:08:03.588Z,68.74
2023-06-22T03:12:18.529Z,68.58
2023-06-22T03:16:36.325Z,68.75
2023-06-22T03:20:48.104Z,69.70
2023-06-22T03:24:59.930Z,70.09
2023-06-22T03:29:12.586Z,70.30
2023-06-22T03:33:24.354Z,70.70
2023-06-22T03:37:36.370Z,71.60
2023-06-22T03:41:48.362Z,72.51
2023-06-22T03:46:00.227Z,72.52
2023-06-22T03:50:12.205Z,72.59
2023-06-22T03:54:23.985Z,72.78
2023-06-22T03:58:37.904Z,73.21
2023-06-22T04:02:49.802Z,73.29
2023-06-22T04:07:01.695Z,73.34
2023-06-22T04:11:13.421Z,73.64
2023-06-22T04:15:25.248Z,73.98
2023-06-22T04:19:36.991Z,74.19
2023-06-22T04:23:48.763Z,74.13
2023-06-22T04:28:00.537Z,72.18
2023-06-22T04:32:13.873Z,69.94
2023-06-22T04:36:26.316Z,67.88
2023-06-22T04:40:38.209Z,66.20
2023-06-22T04:44:50.349Z,64.20
2023-06-22T04:49:02.157Z,62.35
2023-06-22T04:53:14.086Z,61.75
2023-06-22T04:57:33.219Z,62.01
2023-06-22T05:01:45.181Z,61.37
2023-06-22T05:05:56.936Z,60.76
2023-06-22T05:10:08.822Z,59.98
2023-06-22T05:14:20.718Z,58.73
2023-06-22T05:18:33.373Z,56.79
2023-06-22T05:22:45.448Z,56.07
2023-06-22T05:26:57.301Z,55.28
2023-06-22T05:31:09.106Z,54.96
2023-06-22T05:35:20.924Z,54.51
2023-06-22T05:39:32.725Z,53.73
2023-06-22T05:43:44.447Z,52.07
2023-06-22T05:47:56.243Z,51.16
2023-06-22T05:52:08.282Z,50.90
2023-06-22T05:56:20.166Z,50.93
2023-06-22T06:00:32.122Z,50.31
2023-06-22T06:04:44.212Z,49.04
2023-06-22T06:08:56.655Z,47.70
2023-06-22T06:13:08.473Z,45.38
2023-06-22T06:17:20.221Z,44.25
2023-06-22T06:21:31.931Z,43.04
2023-06-22T06:25:43.780Z,41.93
2023-06-22T06:29:55.537Z,41.66
2023-06-22T06:34:07.260Z,41.41
2023-06-22T06:38:19.062Z,40.92
2023-06-22T06:42:30.801Z,41.13
2023-06-22T06:46:43.438Z,40.19
2023-06-22T06:51:00.381Z,39.53
2023-06-22T06:55:13.406Z,38.96
2023-06-22T06:59:25.268Z,39.04
2023-06-22T07:03:50.217Z,39.48
2023-06-22T07:08:03.005Z,39.11
2023-06-22T07:12:14.827Z,38.22
2023-06-22T07:16:28.962Z,39.24
2023-06-22T07:20:40.882Z,39.81
2023-06-22T07:24:52.698Z,40.30
2023-06-22T07:29:05.470Z,40.74
2023-06-22T07:33:21.148Z,39.98
2023-06-22T07:37:34.448Z,40.25
2023-06-22T07:41:46.227Z,40.48
2023-06-22T07:45:57.973Z,40.99
2023-06-22T07:50:10.734Z,41.46
2023-06-22T07:54:22.553Z,41.46
2023-06-22T07:58:34.439Z,41.51
2023-06-22T08:02:47.710Z,41.80
2023-06-22T08:06:59.614Z,42.62
2023-06-22T08:11:11.325Z,43.07
2023-06-22T08:15:23.286Z,43.23
2023-06-22T08:19:35.093Z,43.58
2023-06-22T08:23:46.855Z,44.06
2023-06-22T08:27:58.563Z,43.35
2023-06-22T08:32:11.055Z,43.47
2023-06-22T08:36:23.144Z,43.21
2023-06-22T08:40:35.063Z,42.03
2023-06-22T08:44:46.891Z,40.19
2023-06-22T08:49:00.314Z,38.22
2023-06-22T08:53:12.177Z,38.17
2023-06-22T08:57:24.036Z,38.00
2023-06-22T09:01:35.849Z,39.13
2023-06-22T09:10:41.123Z,40.14
2023-06-22T11:29:58.761Z,45.66
2023-06-22T11:34:10.391Z,45.90
2023-06-22T11:38:22.042Z,47.21
2023-06-22T11:42:33.690Z,47.72
2023-06-22T11:46:45.388Z,48.07
2023-06-22T11:50:59.069Z,49.20
2023-06-22T11:55:11.839Z,49.29
2023-06-22T11:59:23.524Z,50.47
2023-06-22T12:03:35.266Z,51.66
2023-06-22T12:07:47.051Z,53.37
2023-06-22T12:11:58.704Z,54.73
2023-06-22T12:16:10.350Z,56.06
2023-06-22T12:20:23.425Z,56.73
2023-06-22T12:24:35.664Z,57.85
2023-06-22T12:28:48.711Z,60.10
2023-06-22T12:33:00.435Z,60.19
2023-06-22T12:37:12.235Z,61.18
2023-06-22T12:41:23.968Z,62.65
2023-06-22T12:45:35.908Z,63.68
2023-06-22T12:49:47.581Z,64.29
2023-06-22T12:53:59.418Z,65.62
2023-06-22T12:58:11.276Z,66.58
2023-06-22T13:02:23.077Z,67.78
2023-06-22T13:06:34.881Z,68.32
2023-06-22T13:10:46.802Z,68.32
2023-06-22T13:14:58.541Z,68.16
2023-06-22T13:19:11.075Z,68.40
2023-06-22T13:23:23.054Z,68.96
2023-06-22T13:27:34.798Z,69.69
2023-06-22T13:31:46.540Z,69.77
2023-06-22T13:35:58.244Z,70.48
2023-06-22T13:40:41.072Z,70.68
2023-06-22T13:44:52.852Z,70.84
2023-06-22T13:49:04.552Z,71.50
2023-06-22T13:53:16.639Z,71.88
2023-06-22T13:57:28.457Z,72.31
2023-06-22T14:01:41.100Z,73.16
2023-06-22T14:05:55.401Z,73.77
2023-06-22T14:10:07.774Z,74.97
2023-06-22T14:14:19.584Z,75.27
2023-06-22T14:18:33.437Z,76.05
2023-06-22T14:22:47.388Z,76.32
2023-06-22T14:26:59.194Z,76.79
2023-06-22T14:31:13.238Z,76.81
2023-06-22T14:35:27.524Z,76.59
2023-06-22T14:39:40.573Z,76.79
2023-06-22T14:43:52.345Z,77.00
2023-06-22T14:48:04.125Z,77.16
2023-06-22T14:52:15.896Z,77.30
2023-06-22T14:56:27.595Z,77.58
2023-06-22T15:00:39.326Z,77.82
2023-06-22T15:04:51.058Z,77.02
2023-06-22T15:09:02.876Z,77.82
2023-06-22T15:13:14.746Z,77.58
2023-06-22T15:17:30.307Z,78.51
2023-06-22T15:21:42.119Z,79.44
2023-06-22T15:25:53.926Z,80.11
2023-06-22T15:30:06.421Z,81.05
2023-06-22T15:34:18.101Z,81.92
2023-06-22T15:38:29.841Z,82.33
2023-06-22T15:42:41.579Z,83.31
2023-06-22T15:46:54.166Z,83.39
2023-06-22T15:52:16.642Z,83.11
2023-06-22T15:56:28.387Z,83.35
2023-06-22T16:00:40.153Z,83.45
2023-06-22T16:04:51.964Z,83.36
2023-06-22T16:09:05.586Z,83.70
2023-06-22T16:13:17.441Z,83.99
2023-06-22T16:17:30.341Z,84.41
2023-06-22T16:21:43.054Z,84.13
2023-06-22T16:25:54.741Z,84.46
2023-06-22T16:30:08.109Z,84.70
2023-06-22T16:34:19.962Z,85.03
2023-06-22T16:38:31.602Z,85.85
2023-06-22T16:42:46.408Z,85.69
2023-06-22T16:47:02.399Z,86.39
2023-06-22T16:51:14.076Z,86.14
2023-06-22T16:55:25.956Z,86.55
2023-06-22T16:59:37.637Z,86.59
2023-06-22T17:04:11.026Z,86.65
2023-06-22T17:08:23.717Z,86.75
2023-06-22T17:12:35.406Z,86.84
2023-06-22T17:16:49.314Z,86.72
2023-06-22T17:21:00.947Z,86.50
2023-06-22T17:25:20.062Z,86.62
2023-06-22T17:29:32.854Z,86.50
2023-06-22T17:33:44.629Z,86.21
2023-06-22T17:37:58.164Z,86.13
2023-06-22T17:42:09.873Z,86.75
2023-06-22T17:46:21.996Z,86.85
2023-06-22T17:50:39.046Z,87.14
2023-06-22T17:55:09.833Z,87.23
2023-06-22T17:59:22.932Z,87.99
2023-06-22T18:03:34.856Z,88.67
2023-06-22T18:07:47.131Z,89.49
2023-06-22T18:12:03.264Z,89.57
2023-06-22T18:16:15.063Z,89.78
2023-06-22T18:20:28.354Z,89.88
2023-06-22T18:24:41.620Z,89.69
2023-06-22T18:28:54.948Z,89.87
2023-06-22T18:33:06.684Z,89.99
2023-06-22T18:37:23.465Z,90.06
2023-06-22T18:41:41.452Z,90.05
2023-06-22T18:45:53.378Z,89.77
2023-06-22T18:50:07.420Z,89.90
2023-06-22T18:54:39.429Z,90.10
2023-06-22T18:59:00.143Z,89.64
2023-06-22T19:03:30.709Z,89.68
2023-06-22T19:07:55.113Z,89.47
2023-06-22T19:12:27.147Z,89.06
2023-06-22T19:16:40.132Z,88.59
2023-06-22T19:21:03.548Z,88.08
2023-06-22T19:25:23.663Z,88.14
2023-06-22T19:29:36.271Z,87.89
2023-06-22T19:33:51.783Z,87.74
2023-06-22T19:38:03.387Z,87.22
2023-06-22T19:42:17.510Z,87.00
2023-06-22T19:46:33.526Z,86.72
2023-06-22T19:50:45.392Z,86.51
2023-06-22T19:54:57.000Z,86.21
2023-06-22T19:59:21.491Z,86.20
2023-06-22T20:03:38.137Z,86.16
2023-06-22T20:07:49.904Z,86.40
2023-06-22T20:12:01.700Z,86.61
2023-06-22T20:16:13.736Z,86.88
2023-06-22T20:20:28.054Z,87.11
2023-06-22T20:24:40.038Z,87.26
2023-06-22T20:28:51.820Z,87.77
2023-06-22T20:33:06.650Z,87.90
2023-06-22T20:37:29.230Z,88.13
2023-06-22T20:41:41.164Z,88.13
2023-06-22T20:45:55.609Z,88.14
2023-06-22T20:50:07.802Z,88.24
2023-06-22T22:15:50.128Z,89.08
2023-06-22T22:25:12.196Z,89.40
2023-06-22T22:29:47.445Z,89.45
2023-06-22T22:34:43.160Z,89.81
2023-06-22T22:39:54.539Z,89.79
2023-06-22T22:44:36.257Z,89.74
2023-06-22T23:16:49.967Z,89.95
2023-06-22T23:21:12.064Z,89.90
2023-06-22T23:25:56.630Z,90.12
2023-06-22T23:30:19.050Z,90.41
2023-06-22T23:34:35.473Z,90.55
2023-06-22T23:39:56.749Z,90.43
2023-06-22T23:45:13.295Z,90.48
2023-06-22T23:55:11.680Z,90.58
